Time;durP1;ratioP1;P1;durP2;ratioP2;P2;SDS_P1;SDS_P2;PMS_P1;PMS_P2;Temp;Humidity;BMP_temperature;BMP_pressure;BME280_temperature;BME280_humidity;BME280_pressure;Samples;Min_cycle;Max_cycle;Signal;HPM_P1;HPM_P2
2023/10/10 00:01:17;;;;;;;0.30;0.30;;;16.20;99.90;;;;;;5012987;28;20046;-65
2023/10/10 00:03:45;;;;;;;0.00;0.00;;;16.20;99.90;;;;;;5009487;28;20046;-64
2023/10/10 00:06:13;;;;;;;0.00;0.00;;;16.20;99.90;;;;;;5003389;28;20054;-64
2023/10/10 00:08:41;;;;;;;0.00;0.00;;;16.20;99.90;;;;;;5004607;28;20057;-65
2023/10/10 00:11:18;;;;;;;0.00;0.00;;;16.20;99.90;;;;;;4998916;28;20042;-65
2023/10/10 00:13:52;;;;;;;0.10;0.10;;;16.20;99.90;;;;;;5005480;28;20121;-65
2023/10/10 00:16:26;;;;;;;0.65;0.65;;;16.10;99.90;;;;;;5003030;28;20047;-65
2023/10/10 00:18:55;;;;;;;;;;;16.10;99.90;;;;;;5004320;28;20053;-64
2023/10/10 00:21:28;;;;;;;0.00;0.00;;;16.20;99.90;;;;;;5005520;28;19926;-65
2023/10/10 00:23:55;;;;;;;0.15;0.15;;;16.10;99.90;;;;;;5002592;28;20079;-64
2023/10/10 00:26:25;;;;;;;0.08;0.08;;;16.10;99.90;;;;;;5000614;28;20801;-64
2023/10/10 00:28:54;;;;;;;0.00;0.00;;;16.10;99.90;;;;;;5005581;28;20064;-64
2023/10/10 00:31:20;;;;;;;0.20;0.20;;;16.10;99.90;;;;;;5009227;28;20038;-65
2023/10/10 00:33:49;;;;;;;0.00;0.00;;;16.10;99.90;;;;;;5002140;28;20038;-65
2023/10/10 00:36:21;;;;;;;0.10;0.10;;;16.10;99.90;;;;;;5001916;28;20045;-64
2023/10/10 00:38:51;;;;;;;0.10;0.10;;;16.10;99.90;;;;;;5010193;28;20042;-64
2023/10/10 00:41:16;;;;;;;0.00;0.00;;;16.00;99.90;;;;;;5004530;28;20081;-65
2023/10/10 00:43:42;;;;;;;0.00;0.00;;;16.00;99.90;;;;;;5008572;28;20046;-65
2023/10/10 00:46:11;;;;;;;0.03;0.03;;;16.00;99.90;;;;;;5009417;28;20037;-65
2023/10/10 00:48:40;;;;;;;0.00;0.00;;;16.00;99.90;;;;;;5006758;28;20478;-64
2023/10/10 00:51:10;;;;;;;0.03;0.03;;;15.90;99.90;;;;;;5003381;28;20046;-65
2023/10/10 00:53:39;;;;;;;0.08;0.08;;;15.90;99.90;;;;;;5001306;28;20034;-65
2023/10/10 00:56:06;;;;;;;0.10;0.10;;;15.90;99.90;;;;;;4999577;28;20085;-65
2023/10/10 00:58:38;;;;;;;0.00;0.00;;;15.80;99.90;;;;;;5008438;28;20084;-65
2023/10/10 01:01:14;;;;;;;0.00;0.00;;;15.80;99.90;;;;;;5009902;28;20425;-65
2023/10/10 01:03:50;;;;;;;0.00;0.00;;;15.80;99.90;;;;;;5002365;28;20038;-65
2023/10/10 01:06:25;;;;;;;0.10;0.10;;;15.70;99.90;;;;;;5001969;28;20433;-65
2023/10/10 01:08:57;;;;;;;0.00;0.00;;;15.70;99.90;;;;;;5007808;28;20486;-64
2023/10/10 01:11:23;;;;;;;0.22;0.22;;;15.60;99.90;;;;;;5003250;28;20088;-65
2023/10/10 01:13:52;;;;;;;0.00;0.00;;;15.60;99.90;;;;;;5005554;28;20475;-65
2023/10/10 01:16:22;;;;;;;0.20;0.20;;;15.60;99.90;;;;;;5008868;28;20494;-64
2023/10/10 01:18:57;;;;;;;0.22;0.22;;;15.60;99.90;;;;;;5009573;28;20085;-64
2023/10/10 01:21:31;;;;;;;0.00;0.00;;;15.50;99.90;;;;;;5002893;28;20042;-64
2023/10/10 01:24:02;;;;;;;0.73;0.70;;;15.50;99.90;;;;;;5007557;28;20037;-65
2023/10/10 01:26:35;;;;;;;0.00;0.00;;;15.60;99.90;;;;;;5010022;28;20054;-64
2023/10/10 01:29:13;;;;;;;0.00;0.00;;;15.60;99.90;;;;;;5005465;28;20061;-64
2023/10/10 01:31:38;;;;;;;0.17;0.17;;;15.60;99.90;;;;;;5017935;28;20058;-65
2023/10/10 01:34:08;;;;;;;0.00;0.00;;;15.50;99.90;;;;;;5010222;28;20033;-65
2023/10/10 01:36:34;;;;;;;0.20;0.10;;;15.60;99.90;;;;;;5009421;28;20034;-65
2023/10/10 01:39:08;;;;;;;0.08;0.08;;;15.60;99.90;;;;;;5005860;28;20067;-64
2023/10/10 01:41:41;;;;;;;0.00;0.00;;;15.60;99.90;;;;;;5006825;28;20053;-64
2023/10/10 01:44:11;;;;;;;0.07;0.07;;;15.60;99.90;;;;;;5008777;28;20494;-65
2023/10/10 01:46:41;;;;;;;0.00;0.00;;;15.60;99.90;;;;;;5010872;28;20350;-65
2023/10/10 01:49:19;;;;;;;0.00;0.00;;;15.60;99.90;;;;;;4998162;28;20459;-65
2023/10/10 01:51:44;;;;;;;0.00;0.00;;;15.60;99.90;;;;;;5001315;28;20132;-65
2023/10/10 01:54:20;;;;;;;1.60;0.75;;;15.60;99.90;;;;;;5010694;28;20468;-64
2023/10/10 01:56:47;;;;;;;0.00;0.00;;;15.60;99.90;;;;;;5011130;28;20112;-65
2023/10/10 01:59:13;;;;;;;0.10;0.10;;;15.60;99.90;;;;;;5000359;28;20041;-65
2023/10/10 02:01:41;;;;;;;0.00;0.00;;;15.60;99.90;;;;;;5005330;28;20087;-65
2023/10/10 02:04:07;;;;;;;0.00;0.00;;;15.60;99.90;;;;;;5000466;28;20142;-64
2023/10/10 02:06:35;;;;;;;0.20;0.20;;;15.70;99.90;;;;;;5007539;28;20037;-65
2023/10/10 02:09:27;;;;;;;0.50;0.47;;;15.60;99.90;;;;;;5008714;28;20429;-65
2023/10/10 02:11:56;;;;;;;0.10;0.10;;;15.60;99.90;;;;;;4996929;28;20123;-64
2023/10/10 02:14:25;;;;;;;0.03;0.03;;;15.60;99.90;;;;;;5010183;28;20049;-65
2023/10/10 02:16:54;;;;;;;0.00;0.00;;;15.60;99.90;;;;;;5008591;28;20066;-64
2023/10/10 02:19:42;;;;;;;0.00;0.00;;;15.60;99.90;;;;;;5000393;28;20046;-65
2023/10/10 02:22:22;;;;;;;0.00;0.00;;;15.60;99.90;;;;;;5007288;28;20750;-65
2023/10/10 02:25:08;;;;;;;0.00;0.00;;;15.60;99.90;;;;;;4999720;28;20511;-64
2023/10/10 02:27:34;;;;;;;0.00;0.00;;;15.60;99.90;;;;;;5007243;28;20064;-64
2023/10/10 02:30:04;;;;;;;0.00;0.00;;;15.60;99.90;;;;;;5000621;28;20058;-65
2023/10/10 02:32:29;;;;;;;0.05;0.05;;;15.60;99.90;;;;;;5007867;28;20058;-65
2023/10/10 02:35:25;;;;;;;0.13;0.13;;;15.60;99.90;;;;;;4999348;28;20056;-64
2023/10/10 02:37:47;;;;;;;0.00;0.00;;;15.60;99.90;;;;;;5004865;28;20050;-65
2023/10/10 02:40:15;;;;;;;0.00;0.00;;;15.60;99.90;;;;;;4997085;28;20057;-65
2023/10/10 02:42:50;;;;;;;0.00;0.00;;;15.60;99.90;;;;;;4998015;28;20424;-65
2023/10/10 02:45:17;;;;;;;0.00;0.00;;;15.60;99.90;;;;;;5003586;28;20061;-65
2023/10/10 02:47:52;;;;;;;0.10;0.10;;;15.60;99.90;;;;;;5000972;28;20099;-65
2023/10/10 02:50:39;;;;;;;0.00;0.00;;;15.60;99.90;;;;;;4998310;28;20046;-64
2023/10/10 02:53:07;;;;;;;0.00;0.00;;;15.70;99.90;;;;;;5003914;28;20126;-65
2023/10/10 02:55:41;;;;;;;0.00;0.00;;;15.70;99.90;;;;;;5008793;28;20494;-65
2023/10/10 02:58:27;;;;;;;0.20;0.20;;;15.70;99.90;;;;;;4997444;28;20084;-65
2023/10/10 03:00:57;;;;;;;0.43;0.43;;;15.70;99.90;;;;;;5005423;28;20049;-65
2023/10/10 03:03:24;;;;;;;0.00;0.00;;;15.70;99.90;;;;;;5000782;28;20037;-64
2023/10/10 03:05:50;;;;;;;0.43;0.30;;;15.70;99.90;;;;;;5007241;28;20046;-65
2023/10/10 03:11:01;;;;;;;0.00;0.00;;;15.70;99.90;;;;;;5001106;28;20054;-64
2023/10/10 03:13:36;;;;;;;2.20;0.38;;;15.80;99.90;;;;;;5008729;28;20042;-65
2023/10/10 03:19:13;;;;;;;0.57;0.57;;;15.80;99.90;;;;;;4996096;28;20045;-65
2023/10/10 03:29:46;;;;;;;0.05;0.05;;;15.80;99.90;;;;;;4987256;28;20134;-65
2023/10/10 03:34:56;;;;;;;1.85;0.22;;;15.80;99.90;;;;;;5004322;28;20057;-65
2023/10/10 03:39:58;;;;;;;0.45;0.30;;;15.80;99.90;;;;;;5008451;28;20050;-65
2023/10/10 05:24:20;;;;;;;0.57;0.57;;;15.50;99.90;;;;;;5006288;28;20046;-65
2023/10/10 05:26:46;;;;;;;0.17;0.17;;;15.40;99.90;;;;;;5005860;28;20049;-65
2023/10/10 05:29:13;;;;;;;0.10;0.10;;;15.50;99.90;;;;;;5009661;28;20413;-65
2023/10/10 05:31:39;;;;;;;0.77;0.52;;;15.40;99.90;;;;;;5003763;28;20069;-64
2023/10/10 05:34:07;;;;;;;1.30;1.17;;;15.40;99.90;;;;;;5002285;28;20088;-65
2023/10/10 05:36:34;;;;;;;0.10;0.10;;;15.40;99.90;;;;;;5008009;28;20253;-64
2023/10/10 05:39:00;;;;;;;0.20;0.20;;;15.40;99.90;;;;;;5010299;28;20509;-65
2023/10/10 05:41:27;;;;;;;0.10;0.10;;;15.40;99.90;;;;;;4996772;28;20050;-65
2023/10/10 05:43:56;;;;;;;0.10;0.10;;;15.40;99.90;;;;;;5003088;28;20073;-65
2023/10/10 05:46:21;;;;;;;1.48;1.08;;;15.40;99.90;;;;;;5007441;28;20045;-65
2023/10/10 05:48:47;;;;;;;0.90;0.90;;;15.50;99.90;;;;;;5004652;28;20533;-65
2023/10/10 05:51:13;;;;;;;0.10;0.10;;;15.50;99.90;;;;;;5009376;28;20038;-65
2023/10/10 05:53:39;;;;;;;0.20;0.20;;;15.50;99.90;;;;;;5024516;28;20050;-65
2023/10/10 05:56:15;;;;;;;0.20;0.20;;;15.50;99.90;;;;;;5002780;28;20045;-65
2023/10/10 05:58:42;;;;;;;0.10;0.10;;;15.50;99.90;;;;;;5009044;28;20128;-65
2023/10/10 06:01:12;;;;;;;0.20;0.20;;;15.50;99.90;;;;;;5000328;28;20557;-65
2023/10/10 06:03:39;;;;;;;0.82;0.77;;;15.50;99.90;;;;;;5018464;28;20457;-65
2023/10/10 06:06:05;;;;;;;0.20;0.20;;;15.50;99.90;;;;;;5008895;28;20045;-65
2023/10/10 06:08:31;;;;;;;0.25;0.25;;;15.50;99.90;;;;;;5003204;28;20397;-65
2023/10/10 06:10:57;;;;;;;1.88;1.77;;;15.60;99.90;;;;;;5000520;28;20062;-65
2023/10/10 06:13:24;;;;;;;1.73;0.63;;;15.60;99.90;;;;;;5005045;28;20071;-64
2023/10/10 06:15:52;;;;;;;0.70;0.70;;;15.60;99.90;;;;;;5003149;28;20774;-65
2023/10/10 06:18:18;;;;;;;0.20;0.20;;;15.60;99.90;;;;;;5008896;28;20104;-65
2023/10/10 06:20:45;;;;;;;0.80;0.30;;;15.60;99.90;;;;;;5000801;28;20045;-65
2023/10/10 06:23:15;;;;;;;2.83;0.95;;;15.60;99.90;;;;;;5008017;28;20088;-65
2023/10/10 06:25:42;;;;;;;0.22;0.22;;;15.70;99.90;;;;;;5004725;28;20045;-65
2023/10/10 06:28:22;;;;;;;0.05;0.05;;;15.70;99.90;;;;;;5004930;28;20053;-65
2023/10/10 06:30:52;;;;;;;0.00;0.00;;;15.70;99.90;;;;;;5005989;28;20125;-65
2023/10/10 06:33:19;;;;;;;0.00;0.00;;;15.70;99.90;;;;;;5004590;28;20042;-65
2023/10/10 06:35:52;;;;;;;0.57;0.57;;;15.70;99.90;;;;;;5005793;28;20057;-65
2023/10/10 06:38:24;;;;;;;0.00;0.00;;;15.70;99.90;;;;;;5005667;28;20041;-65
2023/10/10 06:40:55;;;;;;;0.70;0.70;;;15.70;99.90;;;;;;4999017;28;20066;-65
2023/10/10 06:43:24;;;;;;;0.40;0.40;;;15.70;99.90;;;;;;5003835;28;20050;-65
2023/10/10 06:45:54;;;;;;;0.28;0.28;;;15.70;99.90;;;;;;5001950;28;20493;-65
2023/10/10 06:48:21;;;;;;;0.47;0.38;;;15.80;99.90;;;;;;5006588;28;20042;-64
2023/10/10 06:50:50;;;;;;;0.30;0.30;;;15.80;99.90;;;;;;5001943;28;20059;-64
2023/10/10 06:53:34;;;;;;;3.47;0.98;;;15.80;99.90;;;;;;5007115;28;20046;-65
2023/10/10 06:56:17;;;;;;;0.50;0.50;;;15.80;99.90;;;;;;4997336;28;20389;-64
2023/10/10 06:58:46;;;;;;;0.37;0.37;;;15.80;99.90;;;;;;5003920;28;20044;-65
2023/10/10 07:01:12;;;;;;;0.47;0.40;;;15.80;99.90;;;;;;5004457;28;20305;-64
2023/10/10 07:03:46;;;;;;;0.30;0.30;;;15.90;99.90;;;;;;5005339;28;20474;-64
2023/10/10 07:06:12;;;;;;;1.27;0.88;;;15.90;99.90;;;;;;4999546;28;20046;-64
2023/10/10 07:08:38;;;;;;;0.10;0.10;;;15.90;99.90;;;;;;5006175;28;20069;-64
2023/10/10 07:11:04;;;;;;;0.25;0.25;;;15.90;99.90;;;;;;5003895;28;20132;-64
2023/10/10 07:13:30;;;;;;;0.57;0.57;;;16.00;99.90;;;;;;5009706;28;20413;-64
2023/10/10 07:15:56;;;;;;;0.32;0.32;;;16.00;99.90;;;;;;5003884;28;20050;-64
2023/10/10 07:18:22;;;;;;;0.98;0.95;;;16.00;99.90;;;;;;5006783;28;20037;-64
2023/10/10 07:21:17;;;;;;;0.45;0.45;;;16.00;99.90;;;;;;5008877;28;20396;-64
2023/10/10 07:26:30;;;;;;;0.32;0.32;;;16.10;99.90;;;;;;4996963;28;20489;-64
2023/10/10 07:28:57;;;;;;;4.80;1.02;;;16.20;99.90;;;;;;5006277;28;20506;-64
2023/10/10 07:31:24;;;;;;;0.22;0.22;;;16.20;99.90;;;;;;5003546;28;20050;-64
2023/10/10 07:33:55;;;;;;;1.52;1.33;;;16.20;99.90;;;;;;5006377;28;20054;-65
2023/10/10 07:36:25;;;;;;;0.70;0.70;;;16.20;99.90;;;;;;5001991;28;20046;-64
2023/10/10 07:38:54;;;;;;;1.27;1.00;;;16.20;99.90;;;;;;5006930;28;20060;-65
2023/10/10 07:41:27;;;;;;;0.82;0.52;;;16.20;99.90;;;;;;4999468;28;20053;-65
2023/10/10 07:43:59;;;;;;;0.47;0.47;;;16.20;99.90;;;;;;4999469;28;20057;-65
2023/10/10 07:46:28;;;;;;;2.13;1.20;;;16.30;99.90;;;;;;4999603;28;20042;-64
2023/10/10 07:48:54;;;;;;;2.08;0.82;;;16.30;99.90;;;;;;5004372;28;20049;-64
2023/10/10 07:51:29;;;;;;;0.73;0.73;;;16.40;99.90;;;;;;5001857;28;20073;-65
2023/10/10 07:54:12;;;;;;;5.15;1.73;;;16.40;99.90;;;;;;4998702;28;20879;-65
2023/10/10 07:56:45;;;;;;;0.30;0.30;;;16.40;99.90;;;;;;5008349;28;20069;-65
2023/10/10 07:59:14;;;;;;;0.30;0.30;;;16.40;99.90;;;;;;5000678;28;20046;-64
2023/10/10 08:01:43;;;;;;;2.83;1.40;;;16.50;99.90;;;;;;5006030;28;20045;-65
2023/10/10 08:04:13;;;;;;;1.13;1.02;;;16.50;99.90;;;;;;4991323;28;20442;-65
2023/10/10 08:06:39;;;;;;;0.40;0.32;;;16.50;99.90;;;;;;5002231;28;20038;-65
2023/10/10 08:11:46;;;;;;;0.73;0.73;;;16.50;99.90;;;;;;5006601;28;20049;-65
2023/10/10 08:14:11;;;;;;;0.30;0.30;;;16.50;99.90;;;;;;5000335;28;20073;-65
2023/10/10 08:16:39;;;;;;;0.50;0.50;;;16.50;99.90;;;;;;5007125;28;20088;-65
2023/10/10 08:19:06;;;;;;;0.22;0.22;;;16.50;99.90;;;;;;4998635;28;20555;-65
2023/10/10 08:21:37;;;;;;;0.80;0.80;;;16.60;99.90;;;;;;5010140;28;20084;-65
2023/10/10 08:24:07;;;;;;;1.58;1.48;;;16.60;99.90;;;;;;5002185;28;20046;-65
2023/10/10 08:26:39;;;;;;;6.63;2.72;;;16.60;99.90;;;;;;5010293;28;20050;-65
2023/10/10 08:29:09;;;;;;;0.90;0.47;;;16.60;99.90;;;;;;5002801;28;20058;-65
2023/10/10 08:31:45;;;;;;;4.47;2.50;;;16.60;99.90;;;;;;5002860;28;20050;-65
2023/10/10 08:34:11;;;;;;;1.85;0.73;;;16.60;99.90;;;;;;5006345;28;20041;-65
2023/10/10 08:36:37;;;;;;;1.25;1.15;;;16.60;99.90;;;;;;5007443;28;20060;-65
2023/10/10 08:41:42;;;;;;;1.40;1.20;;;16.70;99.90;;;;;;5003277;28;20137;-65
2023/10/10 08:44:14;;;;;;;0.73;0.73;;;16.70;99.90;;;;;;4996376;28;20044;-64
2023/10/10 08:46:43;;;;;;;2.37;2.17;;;16.80;99.90;;;;;;4992572;28;20054;-65
2023/10/10 08:49:09;;;;;;;1.73;1.23;;;16.80;99.90;;;;;;5005890;28;20044;-65
2023/10/10 08:51:35;;;;;;;2.35;2.17;;;16.90;99.90;;;;;;5003927;28;20045;-65
2023/10/10 08:54:09;;;;;;;2.25;2.05;;;16.90;99.90;;;;;;5005581;28;20046;-65
2023/10/10 08:56:37;;;;;;;1.92;1.83;;;17.00;99.90;;;;;;4991260;28;20045;-65
2023/10/10 08:59:08;;;;;;;1.85;1.67;;;17.00;99.90;;;;;;5004234;28;20046;-65
2023/10/10 09:01:35;;;;;;;3.90;2.83;;;17.10;99.90;;;;;;5001671;28;20039;-65
2023/10/10 09:04:03;;;;;;;1.50;1.40;;;17.20;99.90;;;;;;5009641;28;20045;-65
2023/10/10 09:06:58;;;;;;;1.63;1.23;;;17.20;99.90;;;;;;4998125;28;20092;-65
2023/10/10 09:09:34;;;;;;;2.42;1.88;;;17.30;99.90;;;;;;5002918;28;20126;-64
2023/10/10 09:12:03;;;;;;;1.33;1.23;;;17.40;99.90;;;;;;5002365;28;20058;-64
2023/10/10 09:14:37;;;;;;;1.42;1.33;;;17.40;99.90;;;;;;5006269;28;20045;-64
2023/10/10 09:17:06;;;;;;;1.25;1.23;;;17.60;99.90;;;;;;5009670;28;20054;-64
2023/10/10 09:19:32;;;;;;;1.00;0.98;;;17.90;99.90;;;;;;5005210;28;20078;-64
2023/10/10 09:22:01;;;;;;;0.88;0.65;;;18.10;99.90;;;;;;5011168;28;20057;-65
2023/10/10 09:24:31;;;;;;;0.52;0.52;;;18.30;99.90;;;;;;5002694;28;20034;-65
2023/10/10 09:26:59;;;;;;;2.45;1.90;;;18.50;99.90;;;;;;5000159;28;20054;-65
2023/10/10 09:29:32;;;;;;;2.30;1.70;;;18.60;99.90;;;;;;5003532;28;20050;-64
2023/10/10 09:31:59;;;;;;;2.00;1.83;;;18.80;99.90;;;;;;5002286;28;20043;-64
2023/10/10 09:34:28;;;;;;;1.75;0.98;;;18.70;99.90;;;;;;5005905;28;20108;-64
2023/10/10 09:36:57;;;;;;;0.68;0.68;;;18.50;99.90;;;;;;5003375;28;20037;-64
2023/10/10 09:39:37;;;;;;;1.98;1.88;;;18.30;99.90;;;;;;5008898;28;20038;-65
2023/10/10 09:42:08;;;;;;;6.13;3.10;;;18.20;99.90;;;;;;4994937;28;20446;-64
2023/10/10 09:52:53;;;;;;;1.42;0.85;;;18.60;99.90;;;;;;5009218;28;20506;-64
2023/10/10 09:58:41;;;;;;;1.38;1.27;;;18.80;99.90;;;;;;5004977;28;20410;-64
2023/10/10 10:03:49;;;;;;;3.00;1.42;;;19.10;99.90;;;;;;4995602;28;20050;-64
2023/10/10 10:06:05;;;;;;;1.45;1.17;;;18.90;99.90;;;;;;5000521;28;20053;-64
2023/10/10 10:08:47;;;;;;;2.97;2.22;;;18.90;99.90;;;;;;5008993;28;20045;-64
2023/10/10 10:11:33;;;;;;;1.42;1.33;;;18.70;99.90;;;;;;5002724;28;20465;-64
2023/10/10 10:14:18;;;;;;;1.88;1.77;;;18.70;99.90;;;;;;5008607;28;20050;-64
2023/10/10 10:16:51;;;;;;;0.95;0.82;;;18.60;99.90;;;;;;5003843;28;20096;-63
2023/10/10 10:19:22;;;;;;;2.38;2.15;;;18.50;99.90;;;;;;5002923;28;20050;-64
2023/10/10 10:21:53;;;;;;;1.40;1.27;;;18.60;99.90;;;;;;5003947;28;20458;-64
2023/10/10 10:24:33;;;;;;;1.27;1.02;;;18.60;99.90;;;;;;4998692;28;20038;-64
2023/10/10 10:27:25;;;;;;;3.00;0.85;;;18.60;99.90;;;;;;4999004;28;20069;-64
2023/10/10 10:30:18;;;;;;;1.63;1.52;;;18.60;99.90;;;;;;5004679;28;20068;-64
2023/10/10 10:32:46;;;;;;;2.55;1.75;;;18.50;99.90;;;;;;5006058;28;20049;-64
2023/10/10 10:35:24;;;;;;;1.20;1.10;;;18.50;99.90;;;;;;5002987;28;20061;-64
2023/10/10 10:37:58;;;;;;;1.65;1.40;;;18.50;99.90;;;;;;4998400;28;20048;-64
2023/10/10 10:40:41;;;;;;;7.72;1.95;;;18.60;99.90;;;;;;5012302;28;20046;-64
2023/10/10 10:43:16;;;;;;;2.97;1.02;;;18.60;99.90;;;;;;5000764;28;20042;-63
2023/10/10 10:45:51;;;;;;;6.57;1.48;;;18.70;99.90;;;;;;5009100;28;20173;-63
2023/10/10 10:48:29;;;;;;;19.38;3.35;;;18.80;99.90;;;;;;4996748;28;20041;-63
2023/10/10 10:51:04;;;;;;;1.42;1.08;;;18.80;99.90;;;;;;4996831;28;20120;-64
2023/10/10 10:53:38;;;;;;;1.10;1.05;;;18.90;99.90;;;;;;5007416;28;20053;-64
2023/10/10 11:01:27;;;;;;;0.70;0.60;;;19.20;99.90;;;;;;4997844;28;20113;-64
2023/10/10 11:03:56;;;;;;;0.55;0.55;;;19.30;99.90;;;;;;4997910;28;20133;-63
2023/10/10 11:06:24;;;;;;;1.85;1.23;;;19.60;99.90;;;;;;4998137;28;20779;-63
2023/10/10 11:14:10;;;;;;;1.77;1.67;;;20.20;99.90;;;;;;4993236;28;20906;-64
2023/10/10 11:16:44;;;;;;;2.17;1.67;;;20.20;99.90;;;;;;5007158;28;20103;-64
2023/10/10 11:21:49;;;;;;;2.60;2.40;;;20.50;99.90;;;;;;5000826;28;20121;-64
2023/10/10 11:24:26;;;;;;;0.57;0.57;;;20.70;99.90;;;;;;4995671;28;20049;-64
2023/10/10 11:29:29;;;;;;;10.80;1.08;;;21.10;99.90;;;;;;5001825;28;20295;-64
2023/10/10 11:32:07;;;;;;;1.60;0.95;;;21.30;99.90;;;;;;5002644;28;20042;-64
2023/10/10 11:34:44;;;;;;;6.20;1.02;;;21.50;99.90;;;;;;4995248;28;20056;-64
2023/10/10 11:37:23;;;;;;;3.75;1.05;;;21.70;99.90;;;;;;4993868;28;20046;-64
2023/10/10 11:42:54;;;;;;;1.70;1.58;;;22.20;99.90;;;;;;4996971;28;20100;-64
2023/10/10 11:45:25;;;;;;;0.80;0.77;;;22.30;99.90;;;;;;4995259;28;20061;-64
2023/10/10 11:47:52;;;;;;;0.32;0.32;;;22.20;99.90;;;;;;5006807;28;20124;-64
2023/10/10 11:50:22;;;;;;;3.38;2.70;;;22.10;99.90;;;;;;5004170;28;20124;-64
2023/10/10 11:52:56;;;;;;;2.05;1.42;;;21.90;99.90;;;;;;5003098;28;20058;-64
2023/10/10 11:55:25;;;;;;;1.83;1.50;;;21.70;99.90;;;;;;5003083;28;20537;-64
2023/10/10 11:57:57;;;;;;;2.60;1.55;;;21.60;99.90;;;;;;5007514;28;20050;-64
2023/10/10 12:00:29;;;;;;;0.75;0.75;;;21.60;99.90;;;;;;5003479;28;20045;-63
2023/10/10 12:03:05;;;;;;;5.43;1.92;;;21.50;99.90;;;;;;5002945;28;20061;-64
2023/10/10 12:08:00;;;;;;;3.95;1.00;;;21.10;99.90;;;;;;5003144;28;20051;-64
2023/10/10 12:10:47;;;;;;;2.08;1.75;;;20.90;99.90;;;;;;5003015;28;20136;-63
2023/10/10 12:13:44;;;;;;;0.55;0.43;;;20.70;99.90;;;;;;5005648;28;20494;-64
2023/10/10 12:16:17;;;;;;;1.45;0.75;;;20.60;99.90;;;;;;4999140;28;20077;-64
2023/10/10 12:18:53;;;;;;;0.85;0.85;;;20.50;99.90;;;;;;5012337;28;20537;-63
2023/10/10 12:21:22;;;;;;;0.30;0.30;;;20.40;99.90;;;;;;5008009;28;20125;-63
2023/10/10 12:23:50;;;;;;;0.20;0.20;;;20.30;99.90;;;;;;5000279;28;20058;-64
2023/10/10 12:26:18;;;;;;;0.57;0.45;;;20.30;99.90;;;;;;5000240;28;20477;-64
2023/10/10 12:28:44;;;;;;;2.40;1.40;;;20.50;99.90;;;;;;5002711;28;20164;-64
2023/10/10 12:31:15;;;;;;;2.47;1.48;;;20.50;99.90;;;;;;5009467;28;20046;-64
2023/10/10 12:33:45;;;;;;;0.80;0.80;;;20.40;99.90;;;;;;5000879;28;20056;-64
2023/10/10 12:36:10;;;;;;;0.28;0.28;;;20.40;99.90;;;;;;5009495;28;20050;-64
2023/10/10 12:38:39;;;;;;;1.75;1.02;;;20.40;99.90;;;;;;4998108;28;20071;-64
2023/10/10 12:41:14;;;;;;;6.65;2.92;;;20.20;99.90;;;;;;5004069;28;20136;-64
2023/10/10 12:43:40;;;;;;;2.08;1.55;;;20.20;99.90;;;;;;5003367;28;20045;-64
2023/10/10 12:46:09;;;;;;;1.58;1.48;;;20.20;99.90;;;;;;4999274;28;20121;-65
2023/10/10 12:48:41;;;;;;;2.33;1.25;;;20.10;99.90;;;;;;5004345;28;20426;-64
2023/10/10 12:51:10;;;;;;;1.10;0.57;;;20.10;99.90;;;;;;5002122;28;20050;-65
2023/10/10 12:53:39;;;;;;;0.73;0.73;;;20.10;99.90;;;;;;5008265;28;20041;-65
2023/10/10 12:56:11;;;;;;;0.17;0.17;;;20.00;99.90;;;;;;5006221;28;20083;-64
2023/10/10 12:58:40;;;;;;;0.50;0.40;;;20.00;99.90;;;;;;4996423;28;20134;-65
2023/10/10 13:01:06;;;;;;;1.08;0.93;;;20.10;99.90;;;;;;5010267;28;20069;-65
2023/10/10 13:03:32;;;;;;;1.23;1.13;;;20.20;99.90;;;;;;5003859;28;20054;-65
2023/10/10 13:06:00;;;;;;;1.63;1.52;;;20.60;99.90;;;;;;4999048;28;20049;-65
2023/10/10 13:08:39;;;;;;;0.80;0.60;;;20.60;99.90;;;;;;5002045;28;20453;-65
2023/10/10 13:11:12;;;;;;;1.45;1.35;;;20.70;99.90;;;;;;5011321;28;20478;-65
2023/10/10 13:13:45;;;;;;;0.25;0.25;;;20.60;99.90;;;;;;4998379;28;20561;-65
2023/10/10 13:16:24;;;;;;;1.02;1.02;;;20.50;99.90;;;;;;5005193;28;20057;-65
2023/10/10 13:18:54;;;;;;;2.25;1.27;;;20.50;99.90;;;;;;4999648;28;20050;-65
2023/10/10 13:21:20;;;;;;;1.15;1.13;;;20.50;99.90;;;;;;5006897;28;20768;-65
2023/10/10 13:23:50;;;;;;;2.53;2.33;;;20.50;99.90;;;;;;5008291;28;20382;-65
2023/10/10 13:26:16;;;;;;;1.65;1.55;;;20.40;99.90;;;;;;4999546;28;20125;-64
2023/10/10 13:28:45;;;;;;;11.05;2.03;;;20.30;99.90;;;;;;5010172;28;20462;-65
2023/10/10 13:31:15;;;;;;;2.20;1.33;;;20.30;99.90;;;;;;5012224;28;20054;-65
2023/10/10 13:33:41;;;;;;;0.38;0.38;;;20.20;99.90;;;;;;5004261;28;20030;-65
2023/10/10 13:36:17;;;;;;;1.98;1.48;;;20.20;99.90;;;;;;5003207;28;20042;-65
2023/10/10 13:38:50;;;;;;;1.13;1.02;;;20.20;99.90;;;;;;5000921;28;20050;-64
2023/10/10 13:41:23;;;;;;;2.70;1.45;;;20.20;99.90;;;;;;5001031;28;20603;-65
2023/10/10 13:43:52;;;;;;;3.25;2.95;;;20.10;99.90;;;;;;4996491;28;20092;-65
2023/10/10 13:46:20;;;;;;;5.10;1.73;;;20.10;99.90;;;;;;5007314;28;20187;-65
2023/10/10 13:48:48;;;;;;;1.02;1.00;;;20.00;99.90;;;;;;5005165;28;20046;-64
2023/10/10 13:51:15;;;;;;;2.72;1.15;;;20.00;99.90;;;;;;5002067;28;20636;-64
2023/10/10 13:53:43;;;;;;;2.45;1.60;;;20.00;99.90;;;;;;5005031;28;20071;-64
2023/10/10 13:56:10;;;;;;;1.63;1.52;;;20.00;99.90;;;;;;5001835;28;20050;-64
2023/10/10 13:58:37;;;;;;;1.27;0.95;;;20.10;99.90;;;;;;5000560;28;20103;-64
2023/10/10 14:03:48;;;;;;;1.17;1.10;;;20.00;99.90;;;;;;5005244;28;20497;-65
2023/10/10 14:06:16;;;;;;;4.45;1.73;;;20.10;99.90;;;;;;5002892;28;20057;-65
2023/10/10 14:08:52;;;;;;;4.20;1.33;;;20.00;99.90;;;;;;5004938;28;20500;-64
2023/10/10 14:11:21;;;;;;;2.55;1.52;;;20.10;99.90;;;;;;5003167;28;20046;-64
2023/10/10 14:13:51;;;;;;;21.08;4.18;;;20.00;99.90;;;;;;5001007;28;20065;-65
2023/10/10 14:16:18;;;;;;;7.10;3.63;;;20.10;99.90;;;;;;4994437;28;20111;-64
2023/10/10 14:18:49;;;;;;;1.60;1.45;;;20.10;99.90;;;;;;5006302;28;20690;-65
2023/10/10 14:21:16;;;;;;;5.10;2.30;;;20.10;99.90;;;;;;5001533;28;20058;-64
2023/10/10 14:23:45;;;;;;;2.90;2.13;;;20.10;99.90;;;;;;5005034;28;20050;-64
2023/10/10 14:26:18;;;;;;;5.00;2.38;;;20.20;99.90;;;;;;4997123;28;20505;-65
2023/10/10 14:28:50;;;;;;;;;;;20.10;99.90;;;;;;5002531;28;20080;-65
2023/10/10 14:31:21;;;;;;;1.60;1.50;;;20.20;99.90;;;;;;5002367;28;20019;-65
2023/10/10 14:33:48;;;;;;;2.33;2.20;;;20.10;99.90;;;;;;5001088;28;20042;-65
2023/10/10 14:36:14;;;;;;;1.67;1.58;;;20.00;99.90;;;;;;4999252;28;20042;-65
2023/10/10 14:38:48;;;;;;;2.35;2.03;;;19.90;99.90;;;;;;5001174;28;20048;-65
2023/10/10 14:41:24;;;;;;;2.78;1.95;;;20.00;99.90;;;;;;5008851;28;20069;-64
2023/10/10 14:43:51;;;;;;;2.28;2.08;;;19.90;99.90;;;;;;5000319;28;20505;-65
2023/10/10 14:46:24;;;;;;;1.27;1.17;;;19.90;99.90;;;;;;5001737;28;20065;-63
2023/10/10 14:48:51;;;;;;;;;;;19.80;99.90;;;;;;5009167;28;20475;-64
2023/10/10 14:51:17;;;;;;;4.20;1.25;;;19.80;99.90;;;;;;5004725;28;19940;-64
2023/10/10 14:53:51;;;;;;;1.98;1.63;;;19.70;99.90;;;;;;5000501;28;20043;-64
2023/10/10 14:56:22;;;;;;;1.52;1.42;;;19.70;99.90;;;;;;4993514;28;20112;-64
2023/10/10 14:58:48;;;;;;;7.55;1.90;;;19.70;99.90;;;;;;5001532;28;20427;-64
2023/10/10 15:01:17;;;;;;;5.65;1.50;;;19.60;99.90;;;;;;5007001;28;20052;-64
2023/10/10 15:03:43;;;;;;;1.90;1.80;;;19.60;99.90;;;;;;4997151;28;20038;-63
2023/10/10 15:06:09;;;;;;;1.63;1.52;;;19.60;99.90;;;;;;5004788;28;20057;-63
2023/10/10 15:08:35;;;;;;;2.00;1.90;;;19.50;99.90;;;;;;4995526;28;20038;-64
2023/10/10 15:11:00;;;;;;;1.27;1.17;;;19.50;99.90;;;;;;5008110;28;20781;-64
2023/10/10 15:13:26;;;;;;;4.75;2.92;;;19.50;99.90;;;;;;5003181;28;20050;-64
2023/10/10 15:15:52;;;;;;;2.60;1.25;;;19.50;99.90;;;;;;4995781;28;20406;-63
2023/10/10 15:18:18;;;;;;;1.88;1.77;;;19.50;99.90;;;;;;5004265;28;20073;-64
2023/10/10 15:20:46;;;;;;;1.73;0.85;;;19.40;99.90;;;;;;4994983;28;20057;-63
2023/10/10 15:23:20;;;;;;;8.90;2.22;;;19.50;99.90;;;;;;4999006;28;20481;-64
2023/10/10 15:25:53;;;;;;;1.50;1.40;;;19.50;99.90;;;;;;4990564;28;20092;-64
2023/10/10 15:28:19;;;;;;;1.20;1.10;;;19.50;99.90;;;;;;5006529;28;20072;-64
2023/10/10 15:30:45;;;;;;;1.02;1.02;;;19.40;99.90;;;;;;5003508;28;20402;-64
2023/10/10 15:33:17;;;;;;;1.20;1.10;;;19.40;99.90;;;;;;5000554;28;20042;-63
2023/10/10 15:35:49;;;;;;;0.28;0.28;;;19.40;99.90;;;;;;4999526;28;20038;-64
2023/10/10 15:38:16;;;;;;;2.53;2.33;;;19.40;99.90;;;;;;5006372;28;20398;-64
2023/10/10 15:40:43;;;;;;;1.17;1.05;;;19.40;99.90;;;;;;5006834;28;20053;-63
2023/10/10 15:43:12;;;;;;;1.13;0.95;;;19.30;99.90;;;;;;5009316;28;20046;-64
2023/10/10 15:45:42;;;;;;;0.90;0.52;;;19.30;99.90;;;;;;5002504;28;20042;-63
2023/10/10 15:48:23;;;;;;;1.30;1.25;;;19.30;99.90;;;;;;5003969;28;20038;-63
2023/10/10 15:50:51;;;;;;;0.40;0.40;;;19.30;99.90;;;;;;5015965;28;20539;-63
2023/10/10 15:53:21;;;;;;;0.63;0.60;;;19.30;99.90;;;;;;5009720;28;20115;-64